createdAt,value
2019-03-20T00:00:13.653Z,4.40
2019-03-20T00:02:42.081Z,9.60
2019-03-20T00:05:11.248Z,19.60
2019-03-20T00:07:39.706Z,19.40
2019-03-20T00:10:10.172Z,14.00
2019-03-20T00:12:39.140Z,12.20
2019-03-20T00:15:13.136Z,25.80
2019-03-20T00:17:41.572Z,35.70
2019-03-20T00:20:11.739Z,35.80
2019-03-20T00:22:42.018Z,41.00
2019-03-20T00:25:11.366Z,40.70
2019-03-20T00:27:39.964Z,42.00
2019-03-20T00:30:18.202Z,39.10
2019-03-20T00:32:47.080Z,41.00
2019-03-20T00:35:15.511Z,41.10
2019-03-20T00:37:44.043Z,37.50
2019-03-20T00:40:15.379Z,34.30
2019-03-20T00:42:43.881Z,29.60
2019-03-20T00:45:21.138Z,25.50
2019-03-20T00:47:49.648Z,23.80
2019-03-20T00:50:19.090Z,21.50
2019-03-20T00:52:47.681Z,20.90
2019-03-20T00:55:17.351Z,29.70
2019-03-20T00:57:45.852Z,27.10
2019-03-20T01:00:19.276Z,24.40
2019-03-20T01:02:47.876Z,22.40
2019-03-20T01:05:16.480Z,19.10
2019-03-20T01:07:45.574Z,14.20
2019-03-20T01:10:22.346Z,4.00
2019-03-20T01:12:51.205Z,11.00
2019-03-20T01:15:19.908Z,18.40
2019-03-20T01:17:48.593Z,23.70
2019-03-20T01:20:36.384Z,21.10
2019-03-20T01:23:24.194Z,21.70
2019-03-20T01:26:11.984Z,19.00
2019-03-20T01:28:59.773Z,15.80
2019-03-20T01:31:47.557Z,17.60
2019-03-20T01:34:35.329Z,16.70
2019-03-20T01:37:23.121Z,16.00
2019-03-20T01:43:17.856Z,24.50
2019-03-20T01:46:05.629Z,27.70
2019-03-20T01:48:45.929Z,22.10
2019-03-20T01:51:26.553Z,24.70
2019-03-20T01:54:07.577Z,26.70
2019-03-20T01:56:48.483Z,23.60
2019-03-20T01:59:29.473Z,26.10
2019-03-20T02:02:10.301Z,29.20
2019-03-20T02:04:51.164Z,38.00
2019-03-20T02:07:31.870Z,44.60
2019-03-20T02:10:12.736Z,43.80
2019-03-20T02:12:53.552Z,46.20
2019-03-20T02:15:39.329Z,45.80
2019-03-20T02:18:17.061Z,44.80
2019-03-20T02:20:58.082Z,44.70
2019-03-20T02:23:38.854Z,45.00
2019-03-20T02:26:19.856Z,45.20
2019-03-20T02:29:00.827Z,40.70
2019-03-20T02:31:41.614Z,41.60
2019-03-20T02:34:22.705Z,40.40
2019-03-20T02:37:03.198Z,37.30
2019-03-20T02:39:44.088Z,34.80
2019-03-20T02:42:24.757Z,34.30
2019-03-20T02:45:05.515Z,31.60
2019-03-20T02:47:46.260Z,35.40
2019-03-20T02:50:27.028Z,38.20
2019-03-20T02:53:07.490Z,34.40
2019-03-20T02:55:48.454Z,38.90
2019-03-20T02:58:29.569Z,36.00
2019-03-20T03:01:10.584Z,35.70
2019-03-20T03:03:51.126Z,37.90
2019-03-20T03:06:32.177Z,32.70
2019-03-20T03:09:12.945Z,30.00
2019-03-20T03:11:53.966Z,23.00
2019-03-20T03:14:34.961Z,27.20
2019-03-20T03:17:15.821Z,34.00
2019-03-20T03:19:56.055Z,40.70
2019-03-20T03:22:36.805Z,48.90
2019-03-20T03:25:17.227Z,52.90
2019-03-20T03:27:57.766Z,51.60
2019-03-20T03:30:38.649Z,50.50
2019-03-20T03:33:19.405Z,49.50
2019-03-20T03:36:00.311Z,47.80
2019-03-20T03:38:41.546Z,43.70
2019-03-20T03:41:22.522Z,42.30
2019-03-20T03:44:03.507Z,41.50
2019-03-20T03:46:44.304Z,41.30
2019-03-20T03:49:24.910Z,41.70
2019-03-20T03:52:05.596Z,40.10
2019-03-20T03:54:46.722Z,47.90
2019-03-20T03:57:27.617Z,44.30
2019-03-20T04:00:08.608Z,42.20
2019-03-20T04:02:49.352Z,40.10
2019-03-20T04:05:30.285Z,39.50
2019-03-20T04:08:11.065Z,39.10
2019-03-20T04:10:51.919Z,42.50
2019-03-20T04:13:32.807Z,44.20
2019-03-20T04:16:13.466Z,46.70
2019-03-20T04:18:54.131Z,48.10
2019-03-20T04:21:34.740Z,48.00
2019-03-20T04:24:15.506Z,51.20
2019-03-20T04:26:56.700Z,51.80
2019-03-20T04:29:37.437Z,51.20
2019-03-20T04:32:18.497Z,52.30
2019-03-20T04:34:58.925Z,52.80
2019-03-20T04:37:39.815Z,50.40
2019-03-20T04:40:20.552Z,46.70
2019-03-20T04:43:01.546Z,45.90
2019-03-20T04:45:42.315Z,44.20
2019-03-20T04:48:23.162Z,48.40
2019-03-20T04:51:04.025Z,45.30
2019-03-20T04:53:44.747Z,48.90
2019-03-20T04:56:25.565Z,50.10
2019-03-20T04:59:06.495Z,41.40
2019-03-20T05:01:47.430Z,39.10
2019-03-20T05:04:28.436Z,39.30
2019-03-20T05:07:09.206Z,36.80
2019-03-20T05:09:50.406Z,37.10
2019-03-20T05:12:30.916Z,40.40
2019-03-20T05:15:11.569Z,39.70
2019-03-20T05:17:52.177Z,42.70
2019-03-20T05:20:32.702Z,41.70
2019-03-20T05:23:13.199Z,41.00
2019-03-20T05:25:53.852Z,37.60
2019-03-20T05:28:34.984Z,37.30
2019-03-20T05:31:15.863Z,35.00
2019-03-20T05:33:56.889Z,36.30
2019-03-20T05:36:37.764Z,37.40
2019-03-20T05:39:18.858Z,42.70
2019-03-20T05:41:59.207Z,42.60
2019-03-20T05:44:40.265Z,42.60
2019-03-20T05:47:20.914Z,51.90
2019-03-20T05:50:01.905Z,56.40
2019-03-20T05:52:42.681Z,60.10
2019-03-20T05:55:23.799Z,59.50
2019-03-20T05:58:04.427Z,73.70
2019-03-20T06:00:45.329Z,78.50
2019-03-20T06:03:26.324Z,50.00
2019-03-20T06:06:06.919Z,13.50
2019-03-20T06:08:47.545Z,1.00
2019-03-20T06:11:28.484Z,1.00
2019-03-20T06:14:09.257Z,1.00
2019-03-20T06:16:50.145Z,1.00
2019-03-20T06:19:31.209Z,1.00
2019-03-20T06:22:12.273Z,1.00
2019-03-20T06:24:52.491Z,1.00
2019-03-20T06:27:33.268Z,1.00
2019-03-20T06:30:13.762Z,1.00
2019-03-20T06:32:54.563Z,1.00
2019-03-20T06:35:35.577Z,1.00
2019-03-20T06:38:16.062Z,1.00
2019-03-20T06:40:57.032Z,1.00
2019-03-20T06:43:38.138Z,99.90
2019-03-20T06:46:18.909Z,1.00
2019-03-20T06:48:59.852Z,99.90
2019-03-20T06:51:40.582Z,95.10
2019-03-20T06:54:21.623Z,99.90
2019-03-20T06:57:02.366Z,99.90
2019-03-20T06:59:43.057Z,99.90
2019-03-20T07:02:23.623Z,1.00
2019-03-20T07:05:04.366Z,99.90
2019-03-20T07:07:44.885Z,99.90
2019-03-20T07:10:25.125Z,99.90
2019-03-20T07:13:06.077Z,2.90
2019-03-20T07:15:46.590Z,1.00
2019-03-20T07:18:27.266Z,1.00
2019-03-20T07:21:08.324Z,99.90
2019-03-20T07:23:49.237Z,1.00
2019-03-20T07:26:29.798Z,1.00
2019-03-20T07:29:11.773Z,1.00
2019-03-20T07:31:52.805Z,1.00
2019-03-20T07:34:33.763Z,99.90
2019-03-20T07:37:14.755Z,99.90
2019-03-20T07:39:55.574Z,99.90
2019-03-20T07:42:36.504Z,99.90
2019-03-20T07:45:17.310Z,99.90
2019-03-20T07:47:57.913Z,99.90
2019-03-20T07:50:38.958Z,71.70
2019-03-20T07:53:19.857Z,62.20
2019-03-20T07:56:00.381Z,6.30
2019-03-20T07:58:41.285Z,1.00
2019-03-20T08:01:21.485Z,1.00
2019-03-20T08:04:02.561Z,1.00
2019-03-20T08:06:43.355Z,1.00
2019-03-20T08:09:25.644Z,1.00
2019-03-20T08:12:06.065Z,1.00
2019-03-20T08:14:47.025Z,1.00
2019-03-20T08:17:27.928Z,1.00
2019-03-20T08:20:08.621Z,1.00
2019-03-20T08:22:49.319Z,1.00
2019-03-20T08:25:30.081Z,1.00
2019-03-20T08:28:10.979Z,1.00
2019-03-20T08:30:51.786Z,1.00
2019-03-20T08:33:32.722Z,1.00
2019-03-20T08:36:13.569Z,1.00
2019-03-20T08:38:53.831Z,1.00
2019-03-20T08:41:34.365Z,1.00
2019-03-20T08:44:14.982Z,1.00
2019-03-20T08:46:55.177Z,1.00
2019-03-20T08:49:36.381Z,1.00
2019-03-20T08:52:17.141Z,1.00
2019-03-20T08:54:58.069Z,1.00
2019-03-20T08:57:39.033Z,1.00
2019-03-20T09:00:20.057Z,1.00
2019-03-20T09:03:00.937Z,1.00
2019-03-20T09:05:41.422Z,1.00
2019-03-20T09:08:29.403Z,1.00
2019-03-20T09:11:04.114Z,1.00
2019-03-20T09:13:44.900Z,1.00
2019-03-20T09:16:26.029Z,1.00
2019-03-20T09:19:06.943Z,1.00
2019-03-20T09:21:47.862Z,1.00
2019-03-20T09:24:28.401Z,1.00
2019-03-20T09:29:51.345Z,1.00
2019-03-20T09:32:32.434Z,1.00
2019-03-20T09:35:13.525Z,99.90
2019-03-20T09:37:54.463Z,99.90
2019-03-20T09:40:35.002Z,99.90
2019-03-20T09:43:16.006Z,99.90
2019-03-20T09:45:57.241Z,99.90
2019-03-20T09:48:37.619Z,99.90
2019-03-20T09:51:18.229Z,99.90
2019-03-20T09:53:58.826Z,99.90
2019-03-20T09:56:42.525Z,99.90
2019-03-20T09:59:23.253Z,99.90
2019-03-20T10:02:04.077Z,99.90
2019-03-20T10:04:45.158Z,99.90
2019-03-20T10:07:26.317Z,99.90
2019-03-20T10:10:06.927Z,99.90
2019-03-20T10:12:47.385Z,99.90
2019-03-20T10:15:28.346Z,99.90
2019-03-20T10:18:09.293Z,99.90
2019-03-20T10:20:50.051Z,99.90
2019-03-20T10:23:31.167Z,99.90
2019-03-20T10:26:11.997Z,99.90
2019-03-20T10:28:52.838Z,99.90
2019-03-20T10:31:33.775Z,99.90
2019-03-20T10:34:14.717Z,99.90
2019-03-20T10:36:55.773Z,99.90
2019-03-20T10:39:36.360Z,99.90
2019-03-20T10:42:17.421Z,99.90
2019-03-20T10:44:58.221Z,99.90
2019-03-20T10:47:39.091Z,99.90
2019-03-20T10:50:21.412Z,99.90
2019-03-20T10:53:02.043Z,99.90
2019-03-20T10:55:43.013Z,99.90
2019-03-20T10:58:23.913Z,99.90
2019-03-20T11:01:04.902Z,99.90
2019-03-20T11:03:45.826Z,99.90
2019-03-20T11:06:27.023Z,99.90
2019-03-20T11:09:17.666Z,99.90
2019-03-20T11:11:50.404Z,99.90
2019-03-20T11:14:31.214Z,99.90
2019-03-20T11:17:11.928Z,99.90
2019-03-20T11:19:52.374Z,99.90
2019-03-20T11:22:33.325Z,99.90
2019-03-20T11:25:13.978Z,99.90
2019-03-20T11:27:54.970Z,99.90
2019-03-20T11:30:36.066Z,99.90
2019-03-20T11:33:17.048Z,99.90
2019-03-20T11:35:57.827Z,99.90
2019-03-20T11:38:38.888Z,99.90
2019-03-20T11:41:19.541Z,99.90
2019-03-20T11:44:00.683Z,99.90
2019-03-20T11:46:41.853Z,99.90
2019-03-20T11:49:22.733Z,99.90
2019-03-20T11:52:05.256Z,99.90
2019-03-20T11:54:45.357Z,99.90
2019-03-20T11:57:26.123Z,99.90
2019-03-20T12:00:07.073Z,99.90
2019-03-20T12:02:47.601Z,99.90
2019-03-20T12:05:28.640Z,99.90
2019-03-20T12:08:09.161Z,99.90
2019-03-20T12:10:49.796Z,99.90
2019-03-20T12:13:30.578Z,99.90
2019-03-20T12:16:11.713Z,99.90
2019-03-20T12:18:52.446Z,99.90
2019-03-20T12:21:33.047Z,99.90
2019-03-20T12:24:13.910Z,99.90
2019-03-20T12:26:54.669Z,99.90
2019-03-20T12:29:35.443Z,99.90
2019-03-20T12:32:16.401Z,99.90
2019-03-20T12:34:57.383Z,99.90
2019-03-20T12:37:38.264Z,99.90
2019-03-20T12:40:19.301Z,99.90
2019-03-20T12:43:00.353Z,99.90
2019-03-20T12:45:41.217Z,99.90
2019-03-20T12:48:21.917Z,99.90
2019-03-20T12:51:02.882Z,99.90
2019-03-20T12:53:43.879Z,99.90
2019-03-20T12:56:24.885Z,99.90
2019-03-20T12:59:05.972Z,99.90
2019-03-20T13:01:46.720Z,99.90
2019-03-20T13:04:27.919Z,99.90
2019-03-20T13:07:09.122Z,99.90
2019-03-20T13:09:49.865Z,99.90
2019-03-20T13:12:30.529Z,99.90
2019-03-20T13:15:11.441Z,99.90
2019-03-20T13:17:52.210Z,99.90
2019-03-20T13:20:21.068Z,99.90
2019-03-20T13:23:12.352Z,99.90
2019-03-20T13:25:40.806Z,99.90
2019-03-20T13:28:09.230Z,99.90
2019-03-20T13:30:49.749Z,99.90
2019-03-20T13:33:25.633Z,99.90
2019-03-20T13:35:48.341Z,99.90
2019-03-20T13:38:16.864Z,99.90
2019-03-20T13:40:45.368Z,99.90
2019-03-20T13:43:13.885Z,99.90
2019-03-20T13:45:42.310Z,99.90
2019-03-20T13:48:10.749Z,99.90
2019-03-20T13:50:39.253Z,99.90
2019-03-20T13:53:07.737Z,99.90
2019-03-20T13:55:36.182Z,99.90
2019-03-20T13:58:04.676Z,99.90
2019-03-20T14:00:33.174Z,99.90
2019-03-20T14:03:01.618Z,99.90
2019-03-20T14:05:30.059Z,99.90
2019-03-20T14:07:58.500Z,99.90
2019-03-20T14:10:29.037Z,99.90
2019-03-20T14:12:57.534Z,99.90
2019-03-20T14:15:26.007Z,99.90
2019-03-20T14:17:54.589Z,99.90
2019-03-20T14:20:27.349Z,99.90
2019-03-20T14:22:55.774Z,99.90
2019-03-20T14:25:24.464Z,99.90
2019-03-20T14:27:53.228Z,99.90
2019-03-20T14:30:26.688Z,99.90
2019-03-20T14:32:55.781Z,99.90
2019-03-20T14:35:24.396Z,99.90
2019-03-20T14:37:52.888Z,99.90
2019-03-20T14:40:36.210Z,99.90
2019-03-20T14:43:01.586Z,99.90
2019-03-20T14:45:30.223Z,99.90
2019-03-20T14:47:58.782Z,99.90
2019-03-20T14:50:28.281Z,99.90
2019-03-20T14:52:56.798Z,99.90
2019-03-20T14:55:25.516Z,99.90
2019-03-20T14:57:53.948Z,99.90
2019-03-20T15:00:29.498Z,99.90
2019-03-20T15:02:58.087Z,99.90
2019-03-20T15:05:26.587Z,99.90
2019-03-20T15:07:55.200Z,99.90
2019-03-20T15:10:27.745Z,99.90
2019-03-20T15:12:56.712Z,99.90
2019-03-20T15:15:28.264Z,99.90
2019-03-20T15:17:56.720Z,99.90
2019-03-20T15:20:25.222Z,99.90
2019-03-20T15:22:53.668Z,99.90
2019-03-20T15:25:22.095Z,99.90
2019-03-20T15:27:50.545Z,99.90
2019-03-20T15:30:23.929Z,99.90
2019-03-20T15:32:52.530Z,99.90
2019-03-20T15:35:21.039Z,99.90
2019-03-20T15:37:49.587Z,99.90
2019-03-20T15:40:25.516Z,99.90
2019-03-20T15:42:53.960Z,99.90
2019-03-20T15:45:22.399Z,99.90
2019-03-20T15:47:50.910Z,99.90
2019-03-20T15:50:23.164Z,99.90
2019-03-20T15:52:51.609Z,99.90
2019-03-20T15:55:25.456Z,99.90
2019-03-20T15:57:53.884Z,99.90
2019-03-20T16:00:23.172Z,99.90
2019-03-20T16:02:54.864Z,99.90
2019-03-20T16:05:23.364Z,99.90
2019-03-20T16:07:51.792Z,99.90
2019-03-20T16:10:22.176Z,99.90
2019-03-20T16:12:50.609Z,99.90
2019-03-20T16:15:21.244Z,99.90
2019-03-20T16:17:49.984Z,99.90
2019-03-20T16:20:18.575Z,99.90
2019-03-20T16:22:47.015Z,99.90
2019-03-20T16:25:20.812Z,99.90
2019-03-20T16:27:49.346Z,99.90
2019-03-20T16:30:26.695Z,99.90
2019-03-20T16:32:56.523Z,99.90
2019-03-20T16:35:25.290Z,99.90
2019-03-20T16:37:53.720Z,99.90
2019-03-20T16:40:24.203Z,99.90
2019-03-20T16:42:52.625Z,99.90
2019-03-20T16:45:26.698Z,99.90
2019-03-20T16:47:55.264Z,99.90
2019-03-20T16:50:23.975Z,99.90
2019-03-20T16:52:52.541Z,99.90
2019-03-20T16:55:21.416Z,99.90
2019-03-20T16:57:49.874Z,99.90
2019-03-20T17:00:31.897Z,99.90
2019-03-20T17:03:00.492Z,99.90
2019-03-20T17:05:30.068Z,99.90
2019-03-20T17:07:58.664Z,99.90
2019-03-20T17:10:35.702Z,99.90
2019-03-20T17:13:04.960Z,99.90
2019-03-20T17:15:38.323Z,99.90
2019-03-20T17:18:07.487Z,99.90
2019-03-20T17:20:36.000Z,99.90
2019-03-20T17:23:07.675Z,99.90
2019-03-20T17:25:35.652Z,99.90
2019-03-20T17:28:05.029Z,99.90
2019-03-20T17:30:38.119Z,99.90
2019-03-20T17:33:07.288Z,99.90
2019-03-20T17:35:35.721Z,99.90
2019-03-20T17:38:04.708Z,99.90
2019-03-20T17:40:33.179Z,99.90
2019-03-20T17:43:01.982Z,99.90
2019-03-20T17:45:31.254Z,99.90
2019-03-20T17:47:59.699Z,99.90
2019-03-20T17:50:32.236Z,99.90
2019-03-20T17:53:00.836Z,99.90
2019-03-20T17:55:29.385Z,99.90
2019-03-20T17:57:57.829Z,99.90
2019-03-20T18:00:36.939Z,99.90
2019-03-20T18:03:06.516Z,99.90
2019-03-20T18:05:35.080Z,99.90
2019-03-20T18:08:04.650Z,99.90
2019-03-20T18:10:33.307Z,99.90
2019-03-20T18:13:01.902Z,99.90
2019-03-20T18:15:30.397Z,99.90
2019-03-20T18:17:58.929Z,99.90
2019-03-20T18:20:27.368Z,99.90
2019-03-20T18:22:55.889Z,99.90
2019-03-20T18:25:24.317Z,99.90
2019-03-20T18:27:52.756Z,99.90
2019-03-20T18:30:28.698Z,99.90
2019-03-20T18:32:57.150Z,99.90
2019-03-20T18:35:25.757Z,99.90
2019-03-20T18:37:54.457Z,99.90
2019-03-20T18:40:24.025Z,99.90
2019-03-20T18:42:52.546Z,99.90
2019-03-20T18:45:22.208Z,99.90
2019-03-20T18:47:50.817Z,99.90
2019-03-20T18:50:24.262Z,99.90
2019-03-20T18:52:53.000Z,1.00
2019-03-20T18:55:21.587Z,1.00
2019-03-20T18:57:50.348Z,1.00
2019-03-20T19:00:24.586Z,1.00
2019-03-20T19:02:55.628Z,1.00
2019-03-20T19:05:35.979Z,1.00
2019-03-20T19:08:04.916Z,1.00
2019-03-20T19:10:33.417Z,1.00
2019-03-20T19:13:02.004Z,1.00
2019-03-20T19:15:30.433Z,1.00
2019-03-20T19:17:58.878Z,1.00
2019-03-20T19:20:27.301Z,1.00
2019-03-20T19:22:55.819Z,1.00
2019-03-20T19:25:24.362Z,1.00
2019-03-20T19:27:52.813Z,1.00
2019-03-20T19:30:22.713Z,1.00
2019-03-20T19:32:51.210Z,1.00
2019-03-20T19:35:19.968Z,1.00
2019-03-20T19:37:48.554Z,8.00
2019-03-20T19:40:18.620Z,69.30
2019-03-20T19:42:47.062Z,99.90
2019-03-20T19:45:16.737Z,99.90
2019-03-20T19:47:45.397Z,1.00
2019-03-20T19:50:18.025Z,81.30
2019-03-20T19:52:46.453Z,1.00
2019-03-20T19:55:17.108Z,1.00
2019-03-20T19:57:45.756Z,1.00
2019-03-20T20:00:24.345Z,1.00
2019-03-20T20:02:52.834Z,1.00
2019-03-20T20:05:21.333Z,99.90
2019-03-20T20:07:49.769Z,1.00
2019-03-20T20:10:19.144Z,99.90
2019-03-20T20:12:47.925Z,99.90
2019-03-20T20:15:24.238Z,1.00
2019-03-20T20:17:52.740Z,1.00
2019-03-20T20:20:29.361Z,1.00
2019-03-20T20:22:57.912Z,1.00
2019-03-20T20:25:26.432Z,1.00
2019-03-20T20:27:54.940Z,99.90
2019-03-20T20:30:23.391Z,99.90
2019-03-20T20:32:51.913Z,99.90
2019-03-20T20:35:20.506Z,1.00
2019-03-20T20:37:50.183Z,1.00
2019-03-20T20:40:22.568Z,1.00
2019-03-20T20:42:50.998Z,99.90
2019-03-20T20:45:19.508Z,1.00
2019-03-20T20:47:48.012Z,1.00
2019-03-20T20:50:17.596Z,99.90
2019-03-20T20:52:46.553Z,99.90
2019-03-20T20:55:16.417Z,99.90
2019-03-20T20:57:44.861Z,99.90
2019-03-20T21:00:16.459Z,99.90
2019-03-20T21:02:44.920Z,99.90
2019-03-20T21:05:13.419Z,99.90
2019-03-20T21:07:41.860Z,99.90
2019-03-20T21:10:20.412Z,99.90
2019-03-20T21:12:56.274Z,99.90
2019-03-20T21:15:30.836Z,99.90
2019-03-20T21:18:14.474Z,99.90
2019-03-20T21:20:43.348Z,99.90
2019-03-20T21:23:37.856Z,1.00
2019-03-20T21:26:24.192Z,1.00
2019-03-20T21:29:12.080Z,1.00
2019-03-20T21:31:46.501Z,1.00
2019-03-20T21:34:23.779Z,1.00
2019-03-20T21:37:24.207Z,1.00
2019-03-20T21:39:52.688Z,1.00
2019-03-20T21:42:51.693Z,1.00
2019-03-20T21:45:47.362Z,1.00
2019-03-20T21:48:15.865Z,1.00
2019-03-20T21:50:56.615Z,1.00
2019-03-20T21:54:01.846Z,1.00
2019-03-20T21:56:42.627Z,1.00
2019-03-20T21:59:45.491Z,1.00
2019-03-20T22:02:41.876Z,1.00
2019-03-20T22:05:29.660Z,1.00
2019-03-20T22:07:58.084Z,1.00
2019-03-20T22:10:29.613Z,1.00
2019-03-20T22:13:18.957Z,1.00
2019-03-20T22:16:07.525Z,1.00
2019-03-20T22:19:04.923Z,1.00
2019-03-20T22:22:05.177Z,1.00
2019-03-20T22:24:42.269Z,1.00
2019-03-20T22:27:38.030Z,1.00
2019-03-20T22:30:08.402Z,1.00
2019-03-20T22:32:57.045Z,1.00
2019-03-20T22:35:34.165Z,1.00
2019-03-20T22:38:05.252Z,1.00
2019-03-20T22:41:00.957Z,1.00
2019-03-20T22:43:35.192Z,1.00
2019-03-20T22:46:35.420Z,1.00
2019-03-20T22:49:38.744Z,1.00
2019-03-20T22:52:16.052Z,1.00
2019-03-20T22:55:01.957Z,1.00
2019-03-20T22:57:35.952Z,1.00
2019-03-20T23:00:07.538Z,1.00
2019-03-20T23:02:41.568Z,1.00
2019-03-20T23:05:10.836Z,1.00
2019-03-20T23:07:39.280Z,1.00
2019-03-20T23:10:16.063Z,1.00
2019-03-20T23:12:44.693Z,1.00
2019-03-20T23:15:19.061Z,1.00
2019-03-20T23:17:47.521Z,1.00
2019-03-20T23:20:27.716Z,1.00
2019-03-20T23:22:56.188Z,1.00
2019-03-20T23:25:24.655Z,1.00
2019-03-20T23:27:53.078Z,1.00
2019-03-20T23:30:24.519Z,1.00
2019-03-20T23:32:52.958Z,1.00
2019-03-20T23:35:21.391Z,1.00
2019-03-20T23:37:49.833Z,1.00
2019-03-20T23:40:18.324Z,1.00
2019-03-20T23:42:49.873Z,1.00
2019-03-20T23:45:19.580Z,1.00
2019-03-20T23:47:51.316Z,1.00
2019-03-20T23:50:19.764Z,1.00
2019-03-20T23:52:48.196Z,1.00
2019-03-20T23:55:16.638Z,1.00
2019-03-20T23:57:45.064Z,1.00
